Time;durP1;ratioP1;P1;durP2;ratioP2;P2;SDS_P1;SDS_P2;PMS_P1;PMS_P2;Temp;Humidity;BMP_temperature;BMP_pressure;BME280_temperature;BME280_humidity;BME280_pressure;Samples;Min_cycle;Max_cycle;Signal;HPM_P1;HPM_P2
2023/08/03 00:00:26;;;;;;;8.30;8.10;;;17.60;99.90;;;;;;6254803;22;20214;-78
2023/08/03 00:02:53;;;;;;;8.40;8.20;;;17.60;99.90;;;;;;6254833;22;20233;-79
2023/08/03 00:05:21;;;;;;;8.50;8.30;;;17.50;99.90;;;;;;6254633;22;20231;-79
2023/08/03 00:07:49;;;;;;;8.20;8.00;;;17.50;99.90;;;;;;6254378;22;20345;-78
2023/08/03 00:10:17;;;;;;;8.10;7.90;;;17.50;99.90;;;;;;6254269;22;20241;-79
2023/08/03 00:12:46;;;;;;;8.52;8.32;;;17.50;99.90;;;;;;6254306;22;20199;-79
2023/08/03 00:15:16;;;;;;;8.50;8.30;;;17.50;99.90;;;;;;6254761;22;20281;-79
2023/08/03 00:17:43;;;;;;;8.38;8.18;;;17.50;99.90;;;;;;6254037;22;20201;-79
2023/08/03 00:20:11;;;;;;;8.32;8.13;;;17.40;99.90;;;;;;6254277;22;20289;-79
2023/08/03 00:22:38;;;;;;;8.70;8.50;;;17.50;99.90;;;;;;6254239;22;20245;-79
2023/08/03 00:25:06;;;;;;;9.00;8.70;;;17.50;99.90;;;;;;6254296;22;20260;-79
2023/08/03 00:27:33;;;;;;;8.57;8.38;;;17.40;99.90;;;;;;6262824;22;20201;-78
2023/08/03 00:30:01;;;;;;;9.13;8.82;;;17.50;99.90;;;;;;6255620;22;20202;-78
2023/08/03 00:32:29;;;;;;;9.13;8.82;;;17.50;99.90;;;;;;6253520;22;20210;-79
2023/08/03 00:34:57;;;;;;;9.50;9.20;;;17.50;99.90;;;;;;6253679;22;20198;-80
2023/08/03 00:37:24;;;;;;;9.40;9.10;;;17.50;99.90;;;;;;6253923;22;20241;-79
2023/08/03 00:39:51;;;;;;;9.50;9.20;;;17.50;99.90;;;;;;6253752;22;20245;-79
2023/08/03 00:42:18;;;;;;;9.38;9.07;;;17.50;99.90;;;;;;6253301;22;20257;-79
2023/08/03 00:44:45;;;;;;;9.20;8.90;;;17.60;99.90;;;;;;6253481;22;20190;-78
2023/08/03 00:47:12;;;;;;;9.48;9.18;;;17.60;99.90;;;;;;6253489;22;20190;-79
2023/08/03 00:49:41;;;;;;;9.60;9.30;;;17.60;99.90;;;;;;6254943;22;20206;-79
2023/08/03 00:52:08;;;;;;;9.60;9.30;;;17.60;99.90;;;;;;6255535;22;20198;-78
2023/08/03 00:54:37;;;;;;;9.70;9.40;;;17.60;99.90;;;;;;6255281;22;20202;-78
2023/08/03 00:57:05;;;;;;;9.73;9.43;;;17.60;99.90;;;;;;6254810;22;20298;-78
2023/08/03 00:59:32;;;;;;;9.90;9.60;;;17.70;99.90;;;;;;6253734;22;20248;-77
2023/08/03 01:02:00;;;;;;;9.70;9.40;;;17.70;99.90;;;;;;6253989;22;20277;-78
2023/08/03 01:04:27;;;;;;;9.90;9.60;;;17.70;99.90;;;;;;6254068;22;20190;-78
2023/08/03 01:06:55;;;;;;;9.80;9.50;;;17.70;99.90;;;;;;6253480;22;20202;-78
2023/08/03 01:09:22;;;;;;;9.77;9.48;;;17.70;99.90;;;;;;6253624;22;20202;-78
2023/08/03 01:11:49;;;;;;;9.90;9.60;;;17.70;99.90;;;;;;6253677;22;20306;-78
2023/08/03 01:14:16;;;;;;;9.85;9.55;;;17.70;99.90;;;;;;6253763;22;20222;-78
2023/08/03 01:16:43;;;;;;;9.80;9.50;;;17.70;99.90;;;;;;6253326;22;20257;-78
2023/08/03 01:19:14;;;;;;;10.00;9.70;;;17.70;99.90;;;;;;6262926;22;20202;-78
2023/08/03 01:21:43;;;;;;;10.00;9.70;;;17.70;99.90;;;;;;6260000;22;20206;-78
2023/08/03 01:24:12;;;;;;;10.13;9.82;;;17.80;99.90;;;;;;6258689;22;20233;-78
2023/08/03 01:26:40;;;;;;;9.90;9.60;;;17.80;99.90;;;;;;6255704;22;20258;-78
2023/08/03 01:29:07;;;;;;;10.18;9.88;;;17.80;99.90;;;;;;6254031;22;20214;-78
2023/08/03 01:31:34;;;;;;;10.50;10.20;;;17.80;99.90;;;;;;6253098;22;20206;-78
2023/08/03 01:34:01;;;;;;;10.25;9.95;;;17.90;99.90;;;;;;6253367;22;20202;-78
2023/08/03 01:36:29;;;;;;;10.15;9.85;;;17.90;99.90;;;;;;6253885;22;20205;-78
2023/08/03 01:38:56;;;;;;;10.00;9.70;;;17.90;99.90;;;;;;6253638;22;20210;-78
2023/08/03 01:41:25;;;;;;;10.38;10.07;;;17.90;99.90;;;;;;6254411;22;20728;-78
2023/08/03 01:44:25;;;;;;;10.15;9.85;;;17.90;99.90;;;;;;6256415;22;20289;-78
2023/08/03 01:46:53;;;;;;;9.90;9.60;;;17.90;99.90;;;;;;6256468;22;20210;-78
2023/08/03 01:49:22;;;;;;;10.20;9.90;;;17.90;99.90;;;;;;6253622;22;20214;-78
2023/08/03 01:51:49;;;;;;;9.93;9.63;;;17.90;99.90;;;;;;6253429;22;20194;-78
2023/08/03 01:54:16;;;;;;;9.90;9.60;;;17.90;99.90;;;;;;6253656;22;20281;-77
2023/08/03 01:56:45;;;;;;;10.13;9.82;;;17.90;99.90;;;;;;6252769;22;20201;-78
2023/08/03 01:59:12;;;;;;;10.00;9.70;;;17.90;99.90;;;;;;6252752;22;20190;-78
2023/08/03 02:01:40;;;;;;;10.13;9.82;;;17.90;99.90;;;;;;6252020;22;20249;-78
2023/08/03 02:04:07;;;;;;;10.18;9.88;;;17.90;99.90;;;;;;6253064;22;20204;-78
2023/08/03 02:06:35;;;;;;;9.82;9.52;;;17.90;99.90;;;;;;6253707;22;20269;-79
2023/08/03 02:09:04;;;;;;;9.90;9.60;;;17.90;99.90;;;;;;6253042;22;20206;-79
2023/08/03 02:11:31;;;;;;;10.07;9.77;;;17.90;99.90;;;;;;6263528;22;20205;-78
2023/08/03 02:13:59;;;;;;;10.20;9.90;;;17.90;99.90;;;;;;6252942;22;20204;-77
2023/08/03 02:16:26;;;;;;;9.80;9.50;;;17.90;99.90;;;;;;6252127;22;20205;-78
2023/08/03 02:18:53;;;;;;;10.13;9.82;;;17.90;99.90;;;;;;6251488;22;20237;-78
2023/08/03 02:21:20;;;;;;;9.90;9.60;;;17.80;99.90;;;;;;6252744;22;20210;-78
2023/08/03 02:23:47;;;;;;;10.32;10.02;;;17.90;99.90;;;;;;6252441;22;20202;-77
2023/08/03 02:26:14;;;;;;;10.00;9.70;;;17.80;99.90;;;;;;6252902;22;20202;-77
2023/08/03 02:28:41;;;;;;;9.98;9.68;;;17.80;99.90;;;;;;6253188;22;20214;-78
2023/08/03 02:31:10;;;;;;;10.35;10.05;;;17.90;99.90;;;;;;6252993;22;20231;-77
2023/08/03 02:33:37;;;;;;;10.30;10.00;;;17.90;99.90;;;;;;6252949;22;20233;-77
2023/08/03 02:36:04;;;;;;;10.40;10.10;;;17.80;99.90;;;;;;6253063;22;20226;-78
2023/08/03 02:38:31;;;;;;;10.43;10.13;;;17.80;99.90;;;;;;6252154;22;20650;-78
2023/08/03 02:40:58;;;;;;;10.18;9.88;;;17.80;99.90;;;;;;6251885;22;20265;-77
2023/08/03 02:43:26;;;;;;;10.30;10.00;;;17.80;99.90;;;;;;6252320;22;20206;-77
2023/08/03 02:45:53;;;;;;;10.30;10.00;;;17.80;99.90;;;;;;6252178;22;20293;-77
2023/08/03 02:48:21;;;;;;;10.32;10.02;;;17.80;99.90;;;;;;6252434;22;20282;-78
2023/08/03 02:50:48;;;;;;;10.30;10.00;;;17.80;99.90;;;;;;6252856;22;20303;-78
2023/08/03 02:53:15;;;;;;;10.40;10.10;;;17.80;99.90;;;;;;6253138;22;20308;-77
2023/08/03 02:55:42;;;;;;;10.10;9.80;;;17.80;99.90;;;;;;6252516;22;20398;-78
2023/08/03 02:58:09;;;;;;;10.00;9.70;;;17.80;99.90;;;;;;6252197;22;20210;-77
2023/08/03 03:00:36;;;;;;;10.10;9.80;;;17.90;99.90;;;;;;6254359;22;20214;-79
2023/08/03 03:03:03;;;;;;;10.23;9.93;;;17.90;99.90;;;;;;6263682;22;20190;-79
2023/08/03 03:05:32;;;;;;;10.20;9.90;;;17.90;99.90;;;;;;6252234;22;20198;-77
2023/08/03 03:07:59;;;;;;;9.98;9.68;;;17.90;99.90;;;;;;6252458;22;20202;-77
2023/08/03 03:10:25;;;;;;;10.18;9.88;;;17.90;99.90;;;;;;6252593;22;20281;-76
2023/08/03 03:12:52;;;;;;;10.00;9.70;;;17.90;99.90;;;;;;6252384;22;20194;-77
2023/08/03 03:15:19;;;;;;;10.10;9.80;;;17.90;99.90;;;;;;6251951;22;20209;-77
2023/08/03 03:17:47;;;;;;;9.60;9.30;;;17.80;99.90;;;;;;6251796;22;20213;-78
2023/08/03 03:20:14;;;;;;;9.63;9.32;;;17.90;99.90;;;;;;6251632;22;20198;-78
2023/08/03 03:22:42;;;;;;;9.90;9.60;;;17.90;99.90;;;;;;6251850;22;20624;-78
2023/08/03 03:25:10;;;;;;;9.52;9.23;;;17.80;99.90;;;;;;6253768;22;20225;-78
2023/08/03 03:27:37;;;;;;;9.80;9.50;;;17.80;99.90;;;;;;6254866;22;20202;-78
2023/08/03 03:30:06;;;;;;;9.60;9.30;;;17.80;99.90;;;;;;6252764;22;20254;-78
2023/08/03 03:32:33;;;;;;;9.70;9.40;;;17.80;99.90;;;;;;6251909;22;20274;-77
2023/08/03 03:34:59;;;;;;;9.90;9.60;;;17.80;99.90;;;;;;6253023;22;20194;-76
2023/08/03 03:37:26;;;;;;;10.60;10.30;;;17.80;99.90;;;;;;6251916;22;20226;-78
2023/08/03 03:39:55;;;;;;;10.30;10.00;;;17.80;99.90;;;;;;6252183;22;20240;-78
2023/08/03 03:42:22;;;;;;;10.60;10.30;;;17.80;99.90;;;;;;6251365;22;20218;-78
2023/08/03 03:44:49;;;;;;;10.55;10.25;;;17.70;99.90;;;;;;6252131;22;20202;-78
2023/08/03 03:47:16;;;;;;;10.48;10.18;;;17.70;99.90;;;;;;6251865;22;20194;-77
2023/08/03 03:49:43;;;;;;;10.70;10.40;;;17.60;99.90;;;;;;6251596;22;20248;-77
2023/08/03 03:52:10;;;;;;;10.88;10.57;;;17.50;99.90;;;;;;6252102;22;20222;-77
2023/08/03 03:54:37;;;;;;;10.85;10.55;;;17.50;99.90;;;;;;6265985;22;20209;-78
2023/08/03 03:57:07;;;;;;;10.90;10.60;;;17.40;99.90;;;;;;6257442;22;20981;-78
2023/08/03 03:59:34;;;;;;;10.63;10.32;;;17.40;99.90;;;;;;6256336;22;20230;-77
2023/08/03 04:02:01;;;;;;;10.50;10.20;;;17.40;99.90;;;;;;6252617;22;20226;-78
2023/08/03 04:04:28;;;;;;;10.68;10.38;;;17.40;99.90;;;;;;6251801;22;20194;-78
2023/08/03 04:06:55;;;;;;;11.18;10.88;;;17.40;99.90;;;;;;6251608;22;20199;-77
2023/08/03 04:09:22;;;;;;;11.18;10.88;;;17.40;99.90;;;;;;6252179;22;20198;-78
2023/08/03 04:11:49;;;;;;;10.70;10.40;;;17.40;99.90;;;;;;6251833;22;20190;-77
2023/08/03 04:14:17;;;;;;;10.80;10.50;;;17.50;99.90;;;;;;6254339;22;20272;-79
2023/08/03 04:16:44;;;;;;;11.07;10.77;;;17.50;99.90;;;;;;6253415;22;20285;-79
2023/08/03 04:19:11;;;;;;;11.02;10.73;;;17.50;99.90;;;;;;6253923;22;20206;-79
2023/08/03 04:21:38;;;;;;;10.98;10.68;;;17.50;99.90;;;;;;6252237;22;21002;-77
2023/08/03 04:24:06;;;;;;;10.63;10.32;;;17.60;99.90;;;;;;6251692;22;20273;-78
2023/08/03 04:26:33;;;;;;;10.80;10.50;;;17.60;99.90;;;;;;6251347;22;20210;-78
2023/08/03 04:28:59;;;;;;;10.77;10.48;;;17.60;99.90;;;;;;6251666;22;20212;-78
2023/08/03 04:31:28;;;;;;;10.60;10.30;;;17.70;99.90;;;;;;6251261;22;20213;-77
2023/08/03 04:33:55;;;;;;;10.60;10.30;;;17.70;99.90;;;;;;6251180;22;20229;-78
2023/08/03 04:36:22;;;;;;;10.52;10.23;;;17.70;99.90;;;;;;6251045;22;20709;-77
2023/08/03 04:38:49;;;;;;;10.60;10.30;;;17.80;99.90;;;;;;6251174;22;20241;-77
2023/08/03 04:41:16;;;;;;;10.80;10.50;;;17.80;99.90;;;;;;6250910;22;20293;-78
2023/08/03 04:43:43;;;;;;;10.60;10.30;;;17.90;99.90;;;;;;6252476;22;20197;-78
2023/08/03 04:46:10;;;;;;;10.85;10.55;;;17.80;99.90;;;;;;6263960;22;20232;-78
2023/08/03 04:48:39;;;;;;;10.32;10.02;;;17.90;99.90;;;;;;6252467;22;20317;-77
2023/08/03 04:51:07;;;;;;;10.40;10.10;;;17.90;99.90;;;;;;6252728;22;20201;-77
2023/08/03 04:53:34;;;;;;;10.50;10.20;;;17.90;99.90;;;;;;6252351;22;20206;-77
2023/08/03 04:56:01;;;;;;;10.90;10.60;;;17.90;99.90;;;;;;6252473;22;20198;-77
2023/08/03 04:58:28;;;;;;;10.57;10.27;;;17.90;99.90;;;;;;6252541;22;20206;-78
2023/08/03 05:00:55;;;;;;;10.63;10.32;;;17.90;99.90;;;;;;6252408;22;20302;-78
2023/08/03 05:03:22;;;;;;;10.70;10.40;;;17.90;99.90;;;;;;6252735;22;20222;-78
2023/08/03 05:05:50;;;;;;;10.82;10.52;;;17.90;99.90;;;;;;6252933;22;20285;-78
2023/08/03 05:08:17;;;;;;;11.15;10.85;;;17.90;99.90;;;;;;6253138;22;20211;-78
2023/08/03 05:10:44;;;;;;;10.82;10.52;;;17.80;99.90;;;;;;6253448;22;20195;-78
2023/08/03 05:13:11;;;;;;;11.10;10.80;;;17.80;99.90;;;;;;6252794;22;20204;-78
2023/08/03 05:15:38;;;;;;;11.10;10.80;;;17.80;99.90;;;;;;6253922;22;20221;-78
2023/08/03 05:18:05;;;;;;;11.00;10.70;;;17.80;99.90;;;;;;6252920;22;20210;-79
2023/08/03 05:20:32;;;;;;;10.90;10.60;;;17.80;99.90;;;;;;6253386;22;20217;-78
2023/08/03 05:23:00;;;;;;;10.80;10.50;;;17.80;99.90;;;;;;6253532;22;20229;-79
2023/08/03 05:25:27;;;;;;;11.02;10.73;;;17.80;99.90;;;;;;6254235;22;20210;-78
2023/08/03 05:27:55;;;;;;;11.05;10.75;;;17.80;99.90;;;;;;6255422;22;20209;-77
2023/08/03 05:30:22;;;;;;;10.88;10.57;;;17.80;99.90;;;;;;6253914;22;20201;-78
2023/08/03 05:32:49;;;;;;;10.73;10.43;;;17.80;99.90;;;;;;6254614;22;20209;-78
2023/08/03 05:35:16;;;;;;;10.75;10.45;;;17.80;99.90;;;;;;6262609;22;20202;-78
2023/08/03 05:37:44;;;;;;;10.70;10.40;;;17.80;99.90;;;;;;6261335;22;20207;-78
2023/08/03 05:40:13;;;;;;;10.88;10.57;;;17.70;99.90;;;;;;6259528;22;20708;-80
2023/08/03 05:42:42;;;;;;;10.90;10.60;;;17.80;99.90;;;;;;6256036;22;20221;-76
2023/08/03 05:45:13;;;;;;;10.65;10.35;;;17.70;99.90;;;;;;6254288;22;20202;-77
2023/08/03 05:47:40;;;;;;;10.80;10.50;;;17.70;99.90;;;;;;6254502;22;20245;-77
2023/08/03 05:50:14;;;;;;;10.65;10.35;;;17.70;99.90;;;;;;6254531;22;20191;-78
2023/08/03 05:52:41;;;;;;;10.77;10.48;;;17.70;99.90;;;;;;6253586;22;20190;-77
2023/08/03 05:55:12;;;;;;;10.60;10.30;;;17.70;99.90;;;;;;6259130;22;20194;-77
2023/08/03 05:57:40;;;;;;;10.73;10.43;;;17.80;99.90;;;;;;6271193;22;20194;-77
2023/08/03 06:00:18;;;;;;;10.85;10.55;;;17.80;99.90;;;;;;6258832;22;20190;-77
2023/08/03 06:02:46;;;;;;;10.60;10.30;;;17.80;99.90;;;;;;6256020;22;20198;-78
2023/08/03 06:05:37;;;;;;;10.40;10.10;;;17.90;99.90;;;;;;6257358;22;20206;-78
2023/08/03 06:08:13;;;;;;;10.60;10.30;;;17.90;99.90;;;;;;6257491;22;20230;-76
2023/08/03 06:10:42;;;;;;;10.40;10.10;;;18.00;99.90;;;;;;6255946;22;20196;-77
2023/08/03 06:13:12;;;;;;;10.70;10.40;;;18.00;99.90;;;;;;6257113;22;20237;-77
2023/08/03 06:15:40;;;;;;;10.48;10.18;;;18.10;99.90;;;;;;6258197;22;20309;-77
2023/08/03 06:18:10;;;;;;;10.10;9.80;;;18.10;99.90;;;;;;6256940;22;20214;-77
2023/08/03 06:20:41;;;;;;;10.48;10.18;;;18.20;99.90;;;;;;6261041;22;20244;-77
2023/08/03 06:23:17;;;;;;;10.40;10.10;;;18.30;99.90;;;;;;6268249;22;20194;-77
2023/08/03 06:25:46;;;;;;;10.55;10.25;;;18.30;99.90;;;;;;6269056;22;20213;-77
2023/08/03 06:28:16;;;;;;;10.55;10.25;;;18.40;99.90;;;;;;6268684;22;20202;-77
2023/08/03 06:30:44;;;;;;;10.45;10.15;;;18.40;99.90;;;;;;6265441;22;20196;-77
2023/08/03 06:33:15;;;;;;;10.50;10.20;;;18.40;99.90;;;;;;6262297;22;20221;-77
2023/08/03 06:35:44;;;;;;;10.10;9.80;;;18.50;99.90;;;;;;6260673;22;20490;-77
2023/08/03 06:38:13;;;;;;;10.48;10.18;;;18.50;99.90;;;;;;6257889;22;20206;-77
2023/08/03 06:40:40;;;;;;;10.50;10.20;;;18.50;99.90;;;;;;6261400;22;20198;-78
2023/08/03 06:43:10;;;;;;;10.50;10.20;;;18.50;99.90;;;;;;6264635;22;20210;-78
2023/08/03 06:45:37;;;;;;;10.20;9.90;;;18.60;99.90;;;;;;6253213;22;20281;-77
2023/08/03 06:48:05;;;;;;;10.30;10.00;;;18.60;99.90;;;;;;6252922;22;20204;-78
2023/08/03 06:50:33;;;;;;;9.88;9.57;;;18.60;99.90;;;;;;6252299;22;20194;-78
2023/08/03 06:53:02;;;;;;;9.90;9.60;;;18.60;99.90;;;;;;6252343;22;20206;-77
2023/08/03 06:55:31;;;;;;;10.00;9.70;;;18.60;99.90;;;;;;6252119;22;20237;-78
2023/08/03 06:57:58;;;;;;;9.95;9.65;;;18.70;99.90;;;;;;6252748;22;20238;-77
2023/08/03 07:00:26;;;;;;;10.00;9.70;;;18.80;99.90;;;;;;6252704;22;20205;-78
2023/08/03 07:02:54;;;;;;;10.00;9.70;;;18.90;99.90;;;;;;6252496;22;20210;-78
2023/08/03 07:05:21;;;;;;;10.50;10.20;;;19.00;99.90;;;;;;6251769;22;20229;-78
2023/08/03 07:07:49;;;;;;;10.15;9.85;;;19.10;99.90;;;;;;6252760;22;20202;-77
2023/08/03 07:10:16;;;;;;;10.20;9.90;;;19.20;99.90;;;;;;6252587;22;20202;-78
2023/08/03 07:12:43;;;;;;;10.15;9.85;;;19.30;99.90;;;;;;6252058;22;20202;-78
2023/08/03 07:15:11;;;;;;;9.93;9.63;;;19.50;99.90;;;;;;6252670;22;20216;-78
2023/08/03 07:17:39;;;;;;;9.93;9.63;;;19.60;99.90;;;;;;6263452;22;20206;-77
2023/08/03 07:20:08;;;;;;;10.30;10.00;;;19.50;99.90;;;;;;6252830;22;20187;-77
2023/08/03 07:22:36;;;;;;;10.18;9.88;;;19.40;99.90;;;;;;6252812;22;20198;-77
2023/08/03 07:25:03;;;;;;;10.30;10.00;;;19.40;99.90;;;;;;6252144;22;20206;-78
2023/08/03 07:27:30;;;;;;;10.38;10.07;;;19.40;99.90;;;;;;6252805;22;20197;-77
2023/08/03 07:29:58;;;;;;;10.55;10.25;;;19.40;99.90;;;;;;6252436;22;20260;-77
2023/08/03 07:32:25;;;;;;;10.18;9.88;;;19.30;99.90;;;;;;6252215;22;20203;-77
2023/08/03 07:34:53;;;;;;;10.05;9.75;;;19.30;99.90;;;;;;6252728;22;20230;-78
2023/08/03 07:37:20;;;;;;;10.20;9.90;;;19.30;99.90;;;;;;6252137;22;20202;-78
2023/08/03 07:39:47;;;;;;;10.30;10.00;;;19.30;99.90;;;;;;6253875;22;20206;-78
2023/08/03 07:42:14;;;;;;;10.32;10.02;;;19.30;99.90;;;;;;6251860;22;20234;-79
2023/08/03 07:44:41;;;;;;;9.95;9.65;;;19.30;99.90;;;;;;6252216;22;20289;-78
2023/08/03 07:47:08;;;;;;;10.40;10.10;;;19.40;99.90;;;;;;6251907;22;20281;-79
2023/08/03 07:49:35;;;;;;;10.32;10.02;;;19.40;99.90;;;;;;6252169;22;20285;-78
2023/08/03 07:52:04;;;;;;;10.20;9.90;;;19.40;99.90;;;;;;6252084;22;20631;-78
2023/08/03 07:54:32;;;;;;;10.07;9.77;;;19.30;99.90;;;;;;6253236;22;20280;-78
2023/08/03 07:56:59;;;;;;;10.10;9.80;;;19.20;99.90;;;;;;6253454;22;20208;-78
2023/08/03 07:59:26;;;;;;;10.00;9.70;;;19.10;99.90;;;;;;6253532;22;20226;-77
2023/08/03 08:01:53;;;;;;;10.05;9.75;;;19.00;99.90;;;;;;6252127;22;20244;-78
2023/08/03 08:04:20;;;;;;;10.40;10.10;;;19.10;99.90;;;;;;6252665;22;20985;-79
2023/08/03 08:06:47;;;;;;;10.27;9.98;;;19.20;99.90;;;;;;6253218;22;20202;-77
2023/08/03 08:09:15;;;;;;;10.27;9.98;;;19.20;99.90;;;;;;6263769;22;20232;-78
2023/08/03 08:11:42;;;;;;;10.10;9.80;;;19.30;99.90;;;;;;6252047;22;20202;-78
2023/08/03 08:14:09;;;;;;;10.02;9.73;;;19.30;99.90;;;;;;6252408;22;20237;-79
2023/08/03 08:16:36;;;;;;;10.55;10.25;;;19.30;99.90;;;;;;6252519;22;20201;-78
2023/08/03 08:19:04;;;;;;;10.35;10.05;;;19.30;99.90;;;;;;6253562;22;20237;-79
2023/08/03 08:21:31;;;;;;;10.25;9.95;;;19.30;99.90;;;;;;6253514;22;20222;-78
2023/08/03 08:23:59;;;;;;;10.35;10.05;;;19.30;99.90;;;;;;6254050;22;20202;-78
2023/08/03 08:26:28;;;;;;;9.98;9.68;;;19.50;99.90;;;;;;6254006;22;20213;-78
2023/08/03 08:28:58;;;;;;;10.27;9.98;;;19.40;99.90;;;;;;6253760;22;20210;-78
2023/08/03 08:31:25;;;;;;;10.50;10.20;;;19.40;99.90;;;;;;6253165;22;20200;-80
2023/08/03 08:33:51;;;;;;;10.40;10.10;;;19.60;99.90;;;;;;6255100;22;20194;-78
2023/08/03 08:36:18;;;;;;;10.40;10.10;;;19.70;99.90;;;;;;6257055;22;20202;-78
2023/08/03 08:38:46;;;;;;;10.40;10.10;;;19.90;99.90;;;;;;6264274;22;20205;-80
2023/08/03 08:41:13;;;;;;;10.63;10.32;;;20.00;99.90;;;;;;6261479;22;20254;-79
2023/08/03 08:43:42;;;;;;;10.52;10.23;;;20.00;99.90;;;;;;6256937;22;20198;-77
2023/08/03 08:46:09;;;;;;;10.50;10.20;;;20.20;99.90;;;;;;6258522;22;20202;-79
2023/08/03 08:48:36;;;;;;;10.20;9.90;;;20.20;99.90;;;;;;6258815;22;20890;-79
2023/08/03 08:51:05;;;;;;;10.20;9.90;;;20.10;99.90;;;;;;6259371;22;20194;-80
2023/08/03 08:53:32;;;;;;;10.18;9.88;;;20.10;99.90;;;;;;6261193;22;20214;-80
2023/08/03 08:56:00;;;;;;;10.05;9.75;;;20.30;99.90;;;;;;6260315;22;20229;-78
2023/08/03 08:58:27;;;;;;;10.25;9.95;;;20.30;99.90;;;;;;6262210;22;20253;-79
2023/08/03 09:01:05;;;;;;;10.15;9.85;;;20.40;99.90;;;;;;6259885;22;20206;-80
2023/08/03 09:03:48;;;;;;;10.10;9.80;;;20.40;99.90;;;;;;6265372;22;20190;-76
2023/08/03 09:06:15;;;;;;;9.95;9.65;;;20.60;99.90;;;;;;6271046;22;20186;-78
2023/08/03 09:08:58;;;;;;;10.30;10.00;;;20.70;99.90;;;;;;6262021;22;20287;-78
2023/08/03 09:11:39;;;;;;;10.27;9.98;;;20.50;99.90;;;;;;6258364;22;20190;-78
2023/08/03 09:14:07;;;;;;;10.10;9.80;;;20.60;99.90;;;;;;6258155;22;20197;-77
2023/08/03 09:16:37;;;;;;;10.32;10.02;;;20.70;99.90;;;;;;6256945;22;20206;-78
2023/08/03 09:19:43;;;;;;;10.40;10.10;;;20.80;99.90;;;;;;6256866;22;20214;-92
2023/08/03 09:22:19;;;;;;;10.20;9.90;;;21.00;99.90;;;;;;6263978;22;20226;-89
2023/08/03 09:24:51;;;;;;;10.48;10.18;;;20.90;99.90;;;;;;6267906;22;20186;-90
2023/08/03 09:27:39;;;;;;;10.40;10.10;;;20.80;99.90;;;;;;6261326;22;20221;-91
2023/08/03 09:30:09;;;;;;;10.20;9.90;;;21.10;99.90;;;;;;6262033;22;20208;-90
2023/08/03 09:32:44;;;;;;;10.10;9.80;;;21.20;99.90;;;;;;6260599;22;20232;-91
2023/08/03 09:35:20;;;;;;;10.23;9.93;;;21.10;99.90;;;;;;6261908;22;20193;-90
2023/08/03 09:38:00;;;;;;;9.93;9.63;;;20.90;99.90;;;;;;6262110;22;20198;-89
2023/08/03 09:40:45;;;;;;;10.10;9.80;;;20.90;99.90;;;;;;6260288;22;20277;-90
2023/08/03 09:43:14;;;;;;;9.80;9.50;;;21.00;99.90;;;;;;6262760;22;20209;-90
2023/08/03 09:45:56;;;;;;;10.00;9.70;;;21.10;99.90;;;;;;6262353;22;20201;-90
2023/08/03 09:48:28;;;;;;;9.90;9.60;;;21.10;99.90;;;;;;6261408;22;20250;-90
2023/08/03 09:51:16;;;;;;;10.18;9.88;;;20.90;99.90;;;;;;6261704;22;20265;-91
2023/08/03 09:54:04;;;;;;;10.20;9.90;;;20.90;99.90;;;;;;6266400;22;20218;-90
2023/08/03 09:56:36;;;;;;;10.13;9.82;;;21.10;99.90;;;;;;6263488;22;20240;-89
2023/08/03 09:59:15;;;;;;;10.23;9.93;;;21.30;99.90;;;;;;6259518;22;20206;-90
2023/08/03 10:01:53;;;;;;;10.30;10.00;;;21.30;99.90;;;;;;6269559;22;20198;-91
2023/08/03 10:04:27;;;;;;;10.38;10.07;;;21.30;99.90;;;;;;6261239;22;20300;-90
2023/08/03 10:07:10;;;;;;;10.18;9.88;;;21.50;99.90;;;;;;6260610;22;20281;-90
2023/08/03 10:09:45;;;;;;;10.10;9.80;;;21.80;99.90;;;;;;6263409;22;20206;-91
2023/08/03 10:12:29;;;;;;;10.00;9.70;;;21.70;99.90;;;;;;6261462;22;20209;-90
2023/08/03 10:15:00;;;;;;;9.60;9.30;;;21.60;99.90;;;;;;6262356;22;20199;-89
2023/08/03 10:17:39;;;;;;;9.40;9.10;;;21.50;99.90;;;;;;6263648;22;20195;-91
2023/08/03 10:20:19;;;;;;;9.00;8.80;;;21.40;99.90;;;;;;6262384;22;20199;-91
2023/08/03 10:23:14;;;;;;;9.20;9.00;;;21.40;99.90;;;;;;6272159;22;20205;-90
2023/08/03 10:26:00;;;;;;;9.02;8.82;;;21.50;99.90;;;;;;6267613;22;20190;-90
2023/08/03 10:28:29;;;;;;;9.63;9.32;;;21.50;99.90;;;;;;6261481;22;20198;-86
2023/08/03 10:31:45;;;;;;;9.70;9.40;;;21.60;99.90;;;;;;6258910;22;20245;-87
2023/08/03 10:38:18;;;;;;;9.57;9.27;;;22.00;99.90;;;;;;6022267;23;21122;-90
2023/08/03 10:41:53;;;;;;;;;;;;;;;;;;;;;
2023/08/03 10:44:42;;;;;;;8.90;8.70;;;21.40;99.90;;;;;;6237491;22;20256;-90
2023/08/03 10:47:33;;;;;;;9.52;9.23;;;21.40;99.90;;;;;;6259148;22;20190;-90
2023/08/03 10:50:23;;;;;;;9.50;9.20;;;21.40;99.90;;;;;;6249443;22;20202;-88
2023/08/03 10:53:15;;;;;;;9.55;9.25;;;21.50;99.90;;;;;;6260598;22;20231;-88
2023/08/03 10:55:56;;;;;;;9.50;9.20;;;21.70;99.90;;;;;;6270088;22;20178;-88
2023/08/03 10:58:40;;;;;;;9.60;9.30;;;22.10;99.90;;;;;;6271481;22;20229;-89
2023/08/03 11:01:35;;;;;;;9.50;9.20;;;22.10;99.90;;;;;;6262486;22;20201;-88
2023/08/03 11:04:13;;;;;;;9.63;9.32;;;22.10;99.90;;;;;;6137816;23;20213;-89
2023/08/03 11:13:00;;;;;;;9.10;8.90;;;21.80;99.90;;;;;;6261420;22;20277;-89
2023/08/03 11:15:50;;;;;;;9.00;8.80;;;21.60;99.90;;;;;;6264035;22;20233;-88
2023/08/03 11:18:28;;;;;;;9.07;8.88;;;21.50;99.90;;;;;;6276172;22;20178;-89
2023/08/03 11:21:19;;;;;;;9.70;9.40;;;21.60;99.90;;;;;;6274543;22;20186;-89
2023/08/03 11:23:49;;;;;;;9.27;8.98;;;21.60;99.90;;;;;;6261465;22;20237;-89
2023/08/03 11:26:25;;;;;;;9.40;9.10;;;21.90;99.90;;;;;;6260153;22;20264;-89
2023/08/03 11:29:11;;;;;;;9.43;9.13;;;22.00;99.90;;;;;;6260679;22;20296;-88
2023/08/03 11:31:50;;;;;;;9.32;9.02;;;21.90;99.90;;;;;;6267589;22;20260;-88
2023/08/03 11:34:30;;;;;;;9.38;9.07;;;21.80;99.90;;;;;;6263371;22;20217;-89
2023/08/03 11:37:01;;;;;;;9.45;9.15;;;21.80;99.90;;;;;;6261878;22;20202;-88
2023/08/03 11:40:05;;;;;;;;;;;;;;;;;;;;;
2023/08/03 11:42:48;;;;;;;9.40;9.10;;;21.90;99.90;;;;;;6260381;22;20281;-88
2023/08/03 11:45:27;;;;;;;8.95;8.75;;;21.90;99.90;;;;;;6268583;22;20182;-88
2023/08/03 11:48:13;;;;;;;9.10;8.88;;;22.00;99.90;;;;;;6261889;22;20202;-89
2023/08/03 11:50:47;;;;;;;9.50;9.20;;;22.00;99.90;;;;;;6259891;22;20198;-87
2023/08/03 11:53:32;;;;;;;8.90;8.70;;;21.90;99.90;;;;;;6260669;22;20258;-89
2023/08/03 11:56:02;;;;;;;8.90;8.70;;;21.70;99.90;;;;;;6261573;22;20254;-88
2023/08/03 11:58:30;;;;;;;8.90;8.70;;;21.50;99.90;;;;;;6261092;22;20209;-89
2023/08/03 12:01:20;;;;;;;9.30;9.00;;;21.50;99.90;;;;;;6260432;22;20202;-89
2023/08/03 12:07:35;;;;;;;9.52;9.23;;;21.60;99.90;;;;;;6168580;23;20204;-90
2023/08/03 12:10:30;;;;;;;;;;;;;;;;;;;;;
2023/08/03 12:13:32;;;;;;;9.02;8.82;;;21.50;99.90;;;;;;6259857;22;20645;-90
2023/08/03 12:16:45;;;;;;;;;;;;;;;;;;;;;
2023/08/03 12:20:04;;;;;;;9.32;9.02;;;21.50;99.90;;;;;;6249381;22;20264;-90
2023/08/03 12:23:11;;;;;;;9.35;9.05;;;21.50;99.90;;;;;;6137162;23;20208;-90
2023/08/03 12:25:38;;;;;;;9.40;9.10;;;21.50;99.90;;;;;;6136717;23;20197;-89
2023/08/03 12:28:11;;;;;;;9.20;8.90;;;21.50;99.90;;;;;;6217733;22;20186;-89
2023/08/03 12:34:40;;;;;;;9.70;9.40;;;21.60;99.90;;;;;;6131057;23;20213;-88
2023/08/03 12:37:25;;;;;;;;;;;;;;;;;;;;;
2023/08/03 12:39:52;;;;;;;9.50;9.20;;;21.50;99.90;;;;;;6258484;22;20210;-89
2023/08/03 12:42:23;;;;;;;9.55;9.25;;;21.60;99.90;;;;;;6264621;22;20194;-88
2023/08/03 12:44:57;;;;;;;9.50;9.20;;;21.70;99.90;;;;;;6257840;22;20257;-89
2023/08/03 12:47:28;;;;;;;9.52;9.23;;;21.70;99.90;;;;;;6259744;22;20193;-89
2023/08/03 12:50:12;;;;;;;9.60;9.30;;;21.70;99.90;;;;;;6258826;22;20202;-88
2023/08/03 12:52:48;;;;;;;9.70;9.40;;;21.70;99.90;;;;;;6258281;22;20182;-88
2023/08/03 12:55:21;;;;;;;9.80;9.50;;;21.70;99.90;;;;;;6259202;22;20277;-88
2023/08/03 12:58:01;;;;;;;9.73;9.43;;;21.80;99.90;;;;;;6259067;22;20201;-89
2023/08/03 13:00:59;;;;;;;;;;;;;;;;;;;;;
2023/08/03 13:03:48;;;;;;;9.60;9.30;;;22.00;99.90;;;;;;6246896;22;20254;-89
2023/08/03 13:06:28;;;;;;;10.00;9.70;;;21.90;99.90;;;;;;6263210;22;20206;-89
2023/08/03 13:09:24;;;;;;;9.70;9.40;;;21.90;99.90;;;;;;6261285;22;20218;-89
2023/08/03 13:12:21;;;;;;;9.55;9.25;;;21.90;99.90;;;;;;6263768;22;20175;-89
2023/08/03 13:14:55;;;;;;;9.90;9.60;;;21.80;99.90;;;;;;6248224;22;20257;-89
2023/08/03 13:17:33;;;;;;;10.20;9.90;;;21.80;99.90;;;;;;6259872;22;20199;-90
2023/08/03 13:20:10;;;;;;;10.00;9.70;;;22.00;99.90;;;;;;6259229;22;20213;-89
2023/08/03 13:23:16;;;;;;;10.15;9.85;;;22.20;99.90;;;;;;6260914;22;20248;-88
2023/08/03 13:25:47;;;;;;;10.27;9.98;;;22.20;99.90;;;;;;6262543;22;20253;-89